createdAt,value
2023-05-15T00:00:39.492Z,10.93
2023-05-15T00:03:20.983Z,12.45
2023-05-15T00:08:35.649Z,12.75
2023-05-15T00:16:01.435Z,16.83
2023-05-15T00:18:52.695Z,13.88
2023-05-15T00:21:27.795Z,19.50
2023-05-15T00:24:19.206Z,10.95
2023-05-15T00:27:35.494Z,16.40
2023-05-15T00:30:53.465Z,16.08
2023-05-15T00:33:46.018Z,16.58
2023-05-15T00:39:51.326Z,13.75
2023-05-15T00:45:46.080Z,15.38
2023-05-15T00:48:54.027Z,14.70
2023-05-15T00:51:42.573Z,18.23
2023-05-15T00:54:13.664Z,17.45
2023-05-15T00:56:54.767Z,19.92
2023-05-15T01:00:01.043Z,19.60
2023-05-15T01:03:00.171Z,18.48
2023-05-15T01:05:32.676Z,17.67
2023-05-15T01:09:23.294Z,20.17
2023-05-15T01:12:05.016Z,19.02
2023-05-15T01:14:38.560Z,14.63
2023-05-15T01:17:07.112Z,23.50
2023-05-15T01:19:38.881Z,21.00
2023-05-15T01:23:02.336Z,24.95
2023-05-15T01:25:38.289Z,20.40
2023-05-15T01:29:01.667Z,20.08
2023-05-15T01:31:35.383Z,20.35
2023-05-15T01:34:56.809Z,18.08
2023-05-15T01:48:48.306Z,19.65
2023-05-15T01:51:16.615Z,18.25
2023-05-15T01:54:49.722Z,25.45
2023-05-15T01:57:19.134Z,20.73
2023-05-15T02:01:15.618Z,23.50
2023-05-15T02:35:06.891Z,24.00
2023-05-15T02:49:09.152Z,28.40
2023-05-15T02:51:37.400Z,25.83
2023-05-15T02:54:05.406Z,23.08
2023-05-15T02:56:41.305Z,27.80
2023-05-15T02:59:11.620Z,29.63
2023-05-15T03:01:56.188Z,30.73
2023-05-15T03:04:26.640Z,30.15
2023-05-15T03:07:18.780Z,29.83
2023-05-15T03:11:17.390Z,26.77
2023-05-15T03:17:16.898Z,26.38
2023-05-15T03:21:08.432Z,29.67
2023-05-15T03:28:52.476Z,29.30
2023-05-15T03:31:47.110Z,25.27
2023-05-15T03:34:34.846Z,31.63
2023-05-15T03:37:07.842Z,26.27
2023-05-15T03:40:01.966Z,26.00
2023-05-15T03:42:48.762Z,28.20
2023-05-15T03:45:44.120Z,29.40
2023-05-15T03:48:14.336Z,31.65
2023-05-15T03:57:32.444Z,29.35
2023-05-15T04:03:03.589Z,23.45
2023-05-15T04:06:57.465Z,33.65
2023-05-15T04:09:33.049Z,30.83
2023-05-15T04:50:02.053Z,24.13
2023-05-15T04:52:36.276Z,31.60
2023-05-15T04:55:16.252Z,23.40
2023-05-15T04:57:54.906Z,27.40
2023-05-15T05:00:29.746Z,30.92
2023-05-15T05:03:00.952Z,28.27
2023-05-15T05:05:37.981Z,22.30
2023-05-15T05:11:27.149Z,22.77
2023-05-15T05:14:03.517Z,19.60
2023-05-15T05:16:47.463Z,18.95
2023-05-15T05:19:21.219Z,16.05
2023-05-15T05:21:54.706Z,14.77
2023-05-15T05:24:38.338Z,16.10
2023-05-15T05:27:11.733Z,20.08
2023-05-15T05:30:17.282Z,21.85
2023-05-15T05:32:51.991Z,23.83
2023-05-15T05:35:42.940Z,23.00
2023-05-15T05:38:53.515Z,21.73
2023-05-15T05:41:48.187Z,19.67
2023-05-15T05:44:35.312Z,20.80
2023-05-15T05:47:16.921Z,20.75
2023-05-15T05:49:48.752Z,20.70
2023-05-15T05:52:58.096Z,21.25
2023-05-15T05:55:20.721Z,20.90
2023-05-15T05:58:18.314Z,18.05
2023-05-15T06:01:05.628Z,19.95
2023-05-15T06:03:46.174Z,17.35
2023-05-15T06:06:34.212Z,18.55
2023-05-15T06:09:27.937Z,13.60
2023-05-15T06:12:03.323Z,18.02
2023-05-15T06:22:39.636Z,25.20
2023-05-15T06:25:18.909Z,22.55
2023-05-15T06:30:58.607Z,23.48
2023-05-15T06:43:04.924Z,22.50
2023-05-15T06:45:59.499Z,18.95
2023-05-15T06:49:51.549Z,20.83
2023-05-15T06:51:27.996Z,19.35
2023-05-15T06:54:49.516Z,20.55
2023-05-15T07:01:46.115Z,23.17
2023-05-15T07:14:17.184Z,20.67
2023-05-15T07:18:36.633Z,21.40
2023-05-15T07:48:39.777Z,17.63
2023-05-15T07:51:07.451Z,21.95
2023-05-15T07:57:20.811Z,25.25
2023-05-15T07:59:57.079Z,18.83
2023-05-15T08:02:27.148Z,45.22
2023-05-15T08:04:55.072Z,25.13
2023-05-15T08:07:22.576Z,19.88
2023-05-15T08:09:50.388Z,20.13
2023-05-15T08:12:34.219Z,19.55
2023-05-15T08:15:13.769Z,15.77
2023-05-15T08:18:23.970Z,18.00
2023-05-15T08:21:04.138Z,22.00
2023-05-15T08:26:24.817Z,19.15
2023-05-15T08:28:56.844Z,24.02
2023-05-15T08:31:46.485Z,19.88
2023-05-15T08:34:34.499Z,18.20
2023-05-15T08:37:05.322Z,22.98
2023-05-15T08:39:32.582Z,21.58
2023-05-15T08:42:28.278Z,21.80
2023-05-15T08:45:04.060Z,24.63
2023-05-15T08:47:35.925Z,19.20
2023-05-15T08:50:16.801Z,22.00
2023-05-15T08:52:49.836Z,24.88
2023-05-15T08:55:18.081Z,24.58
2023-05-15T08:57:52.904Z,16.90
2023-05-15T09:00:22.499Z,20.15
2023-05-15T09:02:54.283Z,22.15
2023-05-15T09:05:21.860Z,22.95
2023-05-15T09:07:52.774Z,21.38
2023-05-15T09:10:20.291Z,27.20
2023-05-15T09:12:55.090Z,23.23
2023-05-15T09:15:25.561Z,21.38
2023-05-15T09:17:55.440Z,18.30
2023-05-15T09:20:28.509Z,25.05
2023-05-15T09:23:00.084Z,22.17
2023-05-15T09:28:30.973Z,22.05
2023-05-15T09:31:02.333Z,17.05
2023-05-15T09:33:34.698Z,22.17
2023-05-15T09:36:04.773Z,25.30
2023-05-15T09:38:40.653Z,19.90
2023-05-15T09:41:12.700Z,22.52
2023-05-15T09:46:12.587Z,20.08
2023-05-15T09:48:41.480Z,18.92
2023-05-15T09:51:19.684Z,19.55
2023-05-15T09:53:54.403Z,18.95
2023-05-15T09:56:22.542Z,20.88
2023-05-15T09:58:57.178Z,21.95
2023-05-15T10:01:25.966Z,20.42
2023-05-15T10:04:07.386Z,21.45
2023-05-15T10:06:43.146Z,19.48
2023-05-15T10:09:11.468Z,24.02
2023-05-15T10:11:43.654Z,21.65
2023-05-15T10:14:13.577Z,23.33
2023-05-15T10:16:45.503Z,26.88
2023-05-15T10:19:24.759Z,26.73
2023-05-15T10:21:53.971Z,26.02
2023-05-15T10:24:31.233Z,22.10
2023-05-15T10:26:59.484Z,23.85
2023-05-15T10:29:30.589Z,30.10
2023-05-15T10:32:01.458Z,24.50
2023-05-15T10:34:35.302Z,24.63
2023-05-15T10:37:13.444Z,28.80
2023-05-15T10:39:48.517Z,30.23
2023-05-15T10:42:19.784Z,30.10
2023-05-15T10:44:56.353Z,30.25
2023-05-15T10:47:23.794Z,28.08
2023-05-15T10:49:51.114Z,30.10
2023-05-15T10:52:24.063Z,32.50
2023-05-15T10:54:53.685Z,33.10
2023-05-15T10:57:24.200Z,28.90
2023-05-15T10:59:51.711Z,29.40
2023-05-15T11:02:23.379Z,27.13
2023-05-15T11:07:35.173Z,28.52
2023-05-15T11:10:28.286Z,30.10
2023-05-15T11:13:00.387Z,31.42
2023-05-15T11:15:28.973Z,26.80
2023-05-15T11:18:15.110Z,31.92
2023-05-15T11:21:00.865Z,27.08
2023-05-15T11:23:41.566Z,27.23
2023-05-15T11:26:09.359Z,30.25
2023-05-15T11:28:43.687Z,26.48
2023-05-15T11:31:12.228Z,24.50
2023-05-15T11:33:40.715Z,31.95
2023-05-15T11:36:08.689Z,29.73
2023-05-15T11:38:42.610Z,30.50
2023-05-15T11:41:22.101Z,29.95
2023-05-15T11:43:50.531Z,24.77
2023-05-15T11:46:17.969Z,30.73
2023-05-15T11:48:48.050Z,27.33
2023-05-15T11:51:24.345Z,30.85
2023-05-15T11:53:53.477Z,20.52
2023-05-15T11:56:25.017Z,23.45
2023-05-15T11:58:57.057Z,21.50
2023-05-15T12:01:24.979Z,21.15
2023-05-15T12:03:54.199Z,21.33
2023-05-15T12:06:22.026Z,23.05
2023-05-15T12:08:53.472Z,19.23
2023-05-15T12:11:24.687Z,21.27
2023-05-15T12:13:55.695Z,18.42
2023-05-15T12:16:28.910Z,17.00
2023-05-15T12:19:04.576Z,18.80
2023-05-15T12:21:32.375Z,17.45
2023-05-15T12:24:07.655Z,15.10
2023-05-15T12:26:36.309Z,17.63
2023-05-15T12:29:04.442Z,13.82
2023-05-15T12:31:33.575Z,18.75
2023-05-15T12:34:01.028Z,17.23
2023-05-15T12:36:30.055Z,20.35
2023-05-15T12:38:58.174Z,17.80
2023-05-15T12:41:31.308Z,21.70
2023-05-15T12:43:58.604Z,18.25
2023-05-15T12:46:29.564Z,17.52
2023-05-15T12:48:59.699Z,14.63
2023-05-15T12:51:27.542Z,16.05
2023-05-15T12:53:54.945Z,15.73
2023-05-15T12:56:22.383Z,10.10
2023-05-15T12:58:50.007Z,11.73
2023-05-15T13:01:17.746Z,12.60
2023-05-15T13:03:45.645Z,9.02
2023-05-15T13:06:13.036Z,10.43
2023-05-15T13:08:41.977Z,8.27
2023-05-15T13:11:13.978Z,4.57
2023-05-15T13:13:48.756Z,4.70
2023-05-15T13:16:29.814Z,5.45
2023-05-15T13:19:00.222Z,3.95
2023-05-15T13:21:29.867Z,6.47
2023-05-15T13:23:57.479Z,4.75
2023-05-15T13:26:24.739Z,4.13
2023-05-15T13:28:52.503Z,4.25
2023-05-15T13:31:22.687Z,5.53
2023-05-15T13:33:49.774Z,3.97
2023-05-15T13:36:17.048Z,2.42
2023-05-15T13:38:44.333Z,4.57
2023-05-15T13:41:11.650Z,6.65
2023-05-15T13:43:39.257Z,4.15
2023-05-15T13:46:06.479Z,7.53
2023-05-15T13:48:33.866Z,5.82
2023-05-15T13:51:01.032Z,6.68
2023-05-15T13:53:28.014Z,6.68
2023-05-15T13:55:56.198Z,7.22
2023-05-15T13:58:26.710Z,5.97
2023-05-15T14:00:53.990Z,6.28
2023-05-15T14:03:21.473Z,6.10
2023-05-15T14:05:50.315Z,4.43
2023-05-15T14:08:17.513Z,5.20
2023-05-15T14:10:44.535Z,4.60
2023-05-15T14:13:11.664Z,2.83
2023-05-15T14:15:38.744Z,3.10
2023-05-15T14:18:05.813Z,4.88
2023-05-15T14:20:35.513Z,3.78
2023-05-15T14:23:02.662Z,6.28
2023-05-15T14:25:29.707Z,6.10
2023-05-15T14:27:56.836Z,7.57
2023-05-15T14:30:24.335Z,5.10
2023-05-15T14:32:51.709Z,8.90
2023-05-15T14:35:18.868Z,9.95
2023-05-15T14:37:53.723Z,4.35
2023-05-15T14:43:09.016Z,3.45
2023-05-15T14:45:36.069Z,5.68
2023-05-15T14:48:03.229Z,2.55
2023-05-15T14:50:30.422Z,3.03
2023-05-15T14:52:57.403Z,7.15
2023-05-15T14:55:24.647Z,2.67
2023-05-15T14:57:51.800Z,3.95
2023-05-15T15:00:20.785Z,8.80
2023-05-15T15:02:48.181Z,1.70
2023-05-15T15:05:16.050Z,8.95
2023-05-15T15:08:06.655Z,4.75
2023-05-15T15:10:38.024Z,3.25
2023-05-15T15:13:10.166Z,3.67
2023-05-15T15:15:59.372Z,2.22
2023-05-15T15:19:00.556Z,2.25
2023-05-15T15:21:33.950Z,1.77
2023-05-15T15:24:09.550Z,5.45
2023-05-15T15:26:44.174Z,3.20
2023-05-15T15:29:11.578Z,1.80
2023-05-15T15:31:38.907Z,3.05
2023-05-15T15:34:08.489Z,1.55
2023-05-15T15:36:44.566Z,3.03
2023-05-15T15:39:13.183Z,2.17
2023-05-15T15:41:42.978Z,5.53
2023-05-15T15:44:10.279Z,1.95
2023-05-15T15:46:37.319Z,3.10
2023-05-15T15:49:06.484Z,2.67
2023-05-15T15:51:34.029Z,3.55
2023-05-15T15:54:10.155Z,3.75
2023-05-15T16:00:16.080Z,10.43
2023-05-15T16:02:43.470Z,2.17
2023-05-15T16:05:10.898Z,9.27
2023-05-15T16:07:38.046Z,2.60
2023-05-15T16:10:12.504Z,4.05
2023-05-15T16:12:58.193Z,4.63
2023-05-15T16:15:43.973Z,3.80
2023-05-15T16:18:21.159Z,2.85
2023-05-15T16:21:15.698Z,1.77
2023-05-15T16:23:43.190Z,3.50
2023-05-15T16:26:16.259Z,5.00
2023-05-15T16:28:48.848Z,2.40
2023-05-15T16:31:16.297Z,3.03
2023-05-15T16:33:43.410Z,5.05
2023-05-15T16:36:10.391Z,4.50
2023-05-15T16:38:37.421Z,1.70
2023-05-15T16:41:04.645Z,2.13
2023-05-15T16:43:31.860Z,3.13
2023-05-15T16:45:59.072Z,2.47
2023-05-15T16:48:27.708Z,5.32
2023-05-15T16:50:55.055Z,4.30
2023-05-15T16:53:22.640Z,5.60
2023-05-15T16:55:50.769Z,7.88
2023-05-15T16:58:18.005Z,4.75
2023-05-15T17:00:45.203Z,6.93
2023-05-15T17:03:13.076Z,1.88
2023-05-15T17:05:40.588Z,5.13
2023-05-15T17:08:07.741Z,3.47
2023-05-15T17:10:36.152Z,2.17
2023-05-15T17:13:03.123Z,3.80
2023-05-15T17:15:30.368Z,3.63
2023-05-15T17:17:58.802Z,1.20
2023-05-15T17:20:27.382Z,2.47
2023-05-15T17:22:54.426Z,3.78
2023-05-15T17:26:59.736Z,7.43
2023-05-15T17:29:56.757Z,3.85
2023-05-15T17:32:52.770Z,3.05
2023-05-15T17:39:01.344Z,5.22
2023-05-15T17:41:32.816Z,3.67
2023-05-15T17:44:17.813Z,1.40
2023-05-15T17:47:09.112Z,2.97
2023-05-15T17:49:42.252Z,4.40
2023-05-15T17:52:27.087Z,3.20
2023-05-15T17:54:56.908Z,3.78
2023-05-15T17:57:28.675Z,4.85
2023-05-15T17:59:56.463Z,5.15
2023-05-15T18:02:24.002Z,5.95
2023-05-15T18:04:52.094Z,5.50
2023-05-15T18:07:19.749Z,6.80
2023-05-15T18:09:51.203Z,10.88
2023-05-15T18:12:20.958Z,2.70
2023-05-15T18:14:50.357Z,3.88
2023-05-15T18:17:18.401Z,8.20
2023-05-15T18:19:46.268Z,4.80
2023-05-15T18:22:26.858Z,8.23
2023-05-15T18:24:55.339Z,8.73
2023-05-15T18:27:24.409Z,6.07
2023-05-15T18:29:53.133Z,7.00
2023-05-15T18:32:26.843Z,5.57
2023-05-15T18:53:50.564Z,2.85
2023-05-15T18:56:26.420Z,3.03
2023-05-15T18:59:03.342Z,5.72
2023-05-15T19:01:37.702Z,4.88
2023-05-15T19:04:28.755Z,6.55
2023-05-15T19:11:34.464Z,10.30
2023-05-15T19:16:51.466Z,4.55
2023-05-15T19:19:25.894Z,20.17
2023-05-15T19:23:14.022Z,12.30
2023-05-15T19:25:22.015Z,6.47
2023-05-15T19:27:58.185Z,9.70
2023-05-15T19:31:27.820Z,6.35
2023-05-15T19:34:01.071Z,4.68
2023-05-15T19:37:00.651Z,3.83
2023-05-15T19:39:28.318Z,4.88
2023-05-15T19:46:12.016Z,6.75
2023-05-15T19:50:14.877Z,9.07
2023-05-15T19:56:59.212Z,5.28
2023-05-15T20:03:01.156Z,3.42
2023-05-15T20:06:17.800Z,5.63
2023-05-15T20:08:50.298Z,3.78
2023-05-15T20:11:21.452Z,8.45
2023-05-15T20:15:23.833Z,5.38
2023-05-15T20:18:32.911Z,7.82
2023-05-15T20:21:29.727Z,3.25
2023-05-15T20:25:26.782Z,4.65
2023-05-15T20:29:07.003Z,7.80
2023-05-15T20:35:00.870Z,8.07
2023-05-15T20:41:11.647Z,5.45
2023-05-15T21:06:31.987Z,11.35
2023-05-15T21:09:04.960Z,7.65
2023-05-15T21:11:32.637Z,6.90
2023-05-15T21:14:02.459Z,2.53
2023-05-15T21:16:30.128Z,4.25
2023-05-15T21:18:58.705Z,4.60
2023-05-15T21:21:26.059Z,4.93
2023-05-15T21:23:53.356Z,7.38
2023-05-15T21:26:23.286Z,6.15
2023-05-15T21:28:50.422Z,6.45
2023-05-15T21:31:17.750Z,9.32
2023-05-15T21:33:45.020Z,9.73
2023-05-15T21:36:12.691Z,6.10
2023-05-15T21:38:40.171Z,4.22
2023-05-15T21:41:07.296Z,5.10
2023-05-15T21:43:34.742Z,5.13
2023-05-15T21:46:02.075Z,3.17
2023-05-15T21:48:31.308Z,17.15
2023-05-15T21:50:58.666Z,6.43
2023-05-15T21:53:26.120Z,6.97
2023-05-15T21:55:59.617Z,4.30
2023-05-15T21:58:27.181Z,14.35
2023-05-15T22:00:54.532Z,6.63
2023-05-15T22:03:22.081Z,12.95
2023-05-15T22:05:50.409Z,9.07
2023-05-15T22:08:17.485Z,10.13
2023-05-15T22:10:45.108Z,8.38
2023-05-15T22:13:13.978Z,7.72
2023-05-15T22:15:41.172Z,8.32
2023-05-15T22:18:08.326Z,9.10
2023-05-15T22:20:36.268Z,8.68
2023-05-15T22:23:03.625Z,11.23
2023-05-15T22:25:31.530Z,7.10
2023-05-15T22:27:58.807Z,5.60
2023-05-15T22:30:26.119Z,9.43
2023-05-15T22:32:53.402Z,7.35
2023-05-15T22:35:20.726Z,4.90
2023-05-15T22:37:49.070Z,5.70
2023-05-15T22:40:16.313Z,8.55
2023-05-15T22:42:43.566Z,13.50
2023-05-15T22:45:14.237Z,9.10
2023-05-15T22:47:41.345Z,6.35
2023-05-15T22:50:09.018Z,7.38
2023-05-15T22:52:36.001Z,13.07
2023-05-15T22:55:03.222Z,8.88
2023-05-15T22:57:30.351Z,7.55
2023-05-15T22:59:57.342Z,4.55
2023-05-15T23:02:25.900Z,7.53
2023-05-15T23:04:53.128Z,5.45
2023-05-15T23:07:20.593Z,5.38
2023-05-15T23:09:47.904Z,8.48
2023-05-15T23:12:15.054Z,8.80
2023-05-15T23:14:42.244Z,4.75
2023-05-15T23:17:09.469Z,9.63
2023-05-15T23:19:36.595Z,14.20
2023-05-15T23:22:03.878Z,3.88
2023-05-15T23:24:31.182Z,7.32
2023-05-15T23:26:58.347Z,8.50
2023-05-15T23:29:25.623Z,2.60
2023-05-15T23:31:55.379Z,4.70
2023-05-15T23:34:22.695Z,6.60
2023-05-15T23:36:49.869Z,3.22
2023-05-15T23:39:16.976Z,8.80
2023-05-15T23:41:44.161Z,6.10
2023-05-15T23:44:11.221Z,6.72
2023-05-15T23:46:39.717Z,2.45
2023-05-15T23:49:07.279Z,7.43
2023-05-15T23:51:34.448Z,8.50
2023-05-15T23:54:01.690Z,6.03
2023-05-15T23:56:30.225Z,4.10
2023-05-15T23:58:57.354Z,10.65
